createdAt,value
2023-04-11T00:02:16.218Z,7.58
2023-04-11T00:04:44.686Z,7.71
2023-04-11T00:07:12.815Z,7.73
2023-04-11T00:09:42.258Z,7.80
2023-04-11T00:12:10.372Z,7.87
2023-04-11T00:14:38.523Z,7.91
2023-04-11T00:17:10.217Z,7.85
2023-04-11T00:19:38.320Z,7.91
2023-04-11T00:22:06.497Z,7.85
2023-04-11T00:24:35.014Z,7.87
2023-04-11T00:27:04.541Z,8.00
2023-04-11T00:29:36.142Z,8.01
2023-04-11T00:32:04.968Z,8.18
2023-04-11T00:34:34.295Z,8.17
2023-04-11T00:37:03.332Z,7.84
2023-04-11T00:39:35.134Z,7.94
2023-04-11T00:42:09.779Z,8.07
2023-04-11T00:44:40.420Z,8.03
2023-04-11T00:47:09.982Z,7.86
2023-04-11T00:49:38.535Z,7.96
2023-04-11T00:52:07.522Z,7.91
2023-04-11T00:54:35.787Z,8.12
2023-04-11T00:57:06.812Z,8.11
2023-04-11T00:59:37.325Z,8.15
2023-04-11T01:02:06.041Z,8.27
2023-04-11T01:04:34.113Z,8.16
2023-04-11T01:07:06.469Z,8.03
2023-04-11T01:09:36.713Z,8.12
2023-04-11T01:12:06.927Z,8.01
2023-04-11T01:14:36.262Z,7.97
2023-04-11T01:17:04.444Z,7.90
2023-04-11T01:19:32.839Z,7.83
2023-04-11T01:22:03.059Z,7.87
2023-04-11T01:24:33.268Z,7.87
2023-04-11T01:27:02.544Z,7.78
2023-04-11T01:29:32.205Z,7.93
2023-04-11T01:32:00.242Z,8.06
2023-04-11T01:34:29.643Z,8.13
2023-04-11T01:36:58.138Z,8.04
2023-04-11T01:39:26.182Z,7.92
2023-04-11T01:41:58.610Z,8.09
2023-04-11T01:44:27.536Z,7.67
2023-04-11T01:46:56.043Z,8.12
2023-04-11T01:49:26.150Z,8.16
2023-04-11T01:51:54.310Z,8.24
2023-04-11T01:54:22.285Z,8.19
2023-04-11T01:56:50.562Z,8.07
2023-04-11T01:59:20.089Z,8.14
2023-04-11T02:01:48.239Z,8.21
2023-04-11T02:04:16.494Z,8.25
2023-04-11T02:06:44.690Z,8.15
2023-04-11T02:09:12.921Z,8.17
2023-04-11T02:11:41.807Z,8.10
2023-04-11T02:14:10.086Z,7.97
2023-04-11T02:16:52.553Z,7.90
2023-04-11T02:19:21.481Z,8.00
2023-04-11T02:21:49.840Z,7.95
2023-04-11T02:24:17.796Z,7.99
2023-04-11T02:26:45.791Z,7.90
2023-04-11T02:29:13.726Z,7.87
2023-04-11T02:31:43.034Z,7.88
2023-04-11T02:34:12.615Z,7.83
2023-04-11T02:36:41.856Z,7.80
2023-04-11T02:39:10.184Z,7.70
2023-04-11T02:41:40.078Z,7.82
2023-04-11T02:44:08.192Z,7.83
2023-04-11T02:46:36.604Z,7.85
2023-04-11T02:49:05.064Z,7.87
2023-04-11T02:51:34.862Z,7.75
2023-04-11T02:54:03.280Z,7.88
2023-04-11T02:56:31.721Z,7.67
2023-04-11T02:58:59.628Z,7.75
2023-04-11T03:01:28.264Z,7.65
2023-04-11T03:03:56.372Z,7.58
2023-04-11T03:06:24.696Z,7.78
2023-04-11T03:08:54.570Z,7.68
2023-04-11T03:11:23.199Z,7.78
2023-04-11T03:13:52.482Z,7.73
2023-04-11T03:16:20.544Z,7.64
2023-04-11T03:18:48.951Z,7.78
2023-04-11T03:21:17.416Z,7.88
2023-04-11T03:23:45.582Z,7.91
2023-04-11T03:26:15.032Z,7.84
2023-04-11T03:28:43.032Z,7.88
2023-04-11T03:31:11.896Z,8.05
2023-04-11T03:33:40.330Z,7.96
2023-04-11T03:36:09.903Z,7.97
2023-04-11T03:38:37.966Z,7.85
2023-04-11T03:41:07.576Z,7.77
2023-04-11T03:43:37.192Z,7.70
2023-04-11T03:46:05.792Z,7.65
2023-04-11T03:48:33.898Z,7.76
2023-04-11T03:51:01.984Z,7.76
2023-04-11T03:53:30.007Z,7.65
2023-04-11T03:55:57.972Z,7.67
2023-04-11T03:58:26.889Z,7.88
2023-04-11T04:00:56.784Z,7.73
2023-04-11T04:03:25.218Z,7.82
2023-04-11T04:05:53.582Z,7.81
2023-04-11T04:08:21.716Z,7.57
2023-04-11T04:10:49.669Z,7.80
2023-04-11T04:13:17.846Z,7.79
2023-04-11T04:15:45.742Z,7.85
2023-04-11T04:18:15.401Z,7.88
2023-04-11T04:20:43.472Z,7.85
2023-04-11T04:23:14.032Z,7.69
2023-04-11T04:25:42.298Z,7.76
2023-04-11T04:28:10.800Z,7.67
2023-04-11T04:30:39.199Z,7.61
2023-04-11T04:33:12.544Z,7.40
2023-04-11T04:35:42.469Z,7.70
2023-04-11T04:38:18.228Z,7.79
2023-04-11T04:40:46.854Z,7.68
2023-04-11T04:43:18.940Z,7.51
2023-04-11T04:45:46.942Z,7.67
2023-04-11T04:48:15.233Z,7.73
2023-04-11T04:50:45.933Z,7.57
2023-04-11T04:53:13.987Z,7.61
2023-04-11T04:55:42.462Z,7.76
2023-04-11T04:58:10.544Z,7.74
2023-04-11T05:00:38.446Z,7.83
2023-04-11T05:03:08.661Z,8.02
2023-04-11T05:05:37.025Z,7.84
2023-04-11T05:08:06.721Z,7.76
2023-04-11T05:10:35.060Z,7.64
2023-04-11T05:13:03.419Z,7.88
2023-04-11T05:15:31.423Z,7.97
2023-04-11T05:17:59.446Z,7.98
2023-04-11T05:20:29.903Z,7.86
2023-04-11T05:22:58.163Z,7.96
2023-04-11T05:25:28.374Z,8.00
2023-04-11T05:27:57.729Z,7.92
2023-04-11T05:30:26.225Z,7.91
2023-04-11T05:32:54.585Z,8.09
2023-04-11T05:35:22.940Z,8.06
2023-04-11T05:37:51.053Z,8.22
2023-04-11T05:40:19.583Z,8.31
2023-04-11T05:42:50.294Z,8.27
2023-04-11T05:45:18.478Z,8.09
2023-04-11T05:47:46.842Z,8.13
2023-04-11T05:50:15.951Z,8.27
2023-04-11T05:52:46.324Z,8.22
2023-04-11T05:55:14.365Z,7.97
2023-04-11T05:57:42.420Z,8.48
2023-04-11T06:00:14.828Z,8.66
2023-04-11T06:02:43.565Z,8.82
2023-04-11T06:05:12.675Z,8.74
2023-04-11T06:07:41.995Z,8.79
2023-04-11T06:10:11.094Z,8.77
2023-04-11T06:12:39.069Z,8.68
2023-04-11T06:15:09.776Z,8.93
2023-04-11T06:17:40.667Z,8.88
2023-04-11T06:20:10.782Z,9.01
2023-04-11T06:22:40.378Z,8.98
2023-04-11T06:25:09.617Z,8.84
2023-04-11T06:27:38.095Z,9.21
2023-04-11T06:30:07.520Z,9.26
2023-04-11T06:32:35.567Z,9.25
2023-04-11T06:35:06.200Z,9.49
2023-04-11T06:37:34.811Z,9.37
2023-04-11T06:40:05.514Z,9.14
2023-04-11T06:42:33.787Z,9.36
2023-04-11T06:45:02.546Z,9.54
2023-04-11T06:47:31.962Z,9.56
2023-04-11T06:49:59.978Z,9.73
2023-04-11T06:52:30.380Z,9.91
2023-04-11T06:54:58.546Z,9.93
2023-04-11T06:57:27.045Z,10.20
2023-04-11T06:59:56.321Z,10.07
2023-04-11T07:02:25.910Z,10.12
2023-04-11T07:04:54.564Z,10.03
2023-04-11T07:07:22.562Z,9.96
2023-04-11T07:09:52.142Z,9.77
2023-04-11T07:12:20.158Z,9.57
2023-04-11T07:14:50.899Z,9.92
2023-04-11T07:17:18.834Z,9.99
2023-04-11T07:19:47.115Z,10.18
2023-04-11T07:22:15.053Z,10.31
2023-04-11T07:24:43.655Z,10.01
2023-04-11T07:27:14.711Z,10.55
2023-04-11T07:29:43.554Z,10.35
2023-04-11T07:32:11.555Z,10.14
2023-04-11T07:34:40.743Z,10.58
2023-04-11T07:37:08.766Z,10.42
2023-04-11T07:39:36.957Z,10.76
2023-04-11T07:42:05.121Z,10.86
2023-04-11T07:44:34.599Z,11.01
2023-04-11T07:47:03.141Z,10.95
2023-04-11T07:49:31.565Z,10.86
2023-04-11T07:51:59.705Z,10.88
2023-04-11T07:54:28.612Z,10.88
2023-04-11T07:56:57.191Z,11.02
2023-04-11T07:59:25.433Z,10.81
2023-04-11T08:02:02.210Z,10.89
2023-04-11T08:04:32.752Z,10.87
2023-04-11T08:07:01.122Z,11.15
2023-04-11T08:09:29.301Z,11.06
2023-04-11T08:11:58.610Z,11.06
2023-04-11T08:14:26.801Z,11.51
2023-04-11T08:16:55.578Z,11.77
2023-04-11T08:19:25.139Z,11.84
2023-04-11T08:21:53.275Z,11.64
2023-04-11T08:24:21.862Z,11.57
2023-04-11T08:26:50.918Z,11.38
2023-04-11T08:29:19.961Z,11.39
2023-04-11T08:31:48.231Z,11.69
2023-04-11T08:34:16.946Z,11.91
2023-04-11T08:36:47.739Z,12.08
2023-04-11T08:39:15.682Z,12.00
2023-04-11T08:41:44.471Z,11.91
2023-04-11T08:44:13.263Z,11.52
2023-04-11T08:46:44.322Z,11.68
2023-04-11T08:49:12.507Z,11.81
2023-04-11T08:51:44.926Z,12.10
2023-04-11T08:54:16.716Z,12.30
2023-04-11T08:56:45.017Z,12.38
2023-04-11T08:59:13.259Z,12.30
2023-04-11T09:01:41.555Z,12.58
2023-04-11T09:04:12.389Z,12.56
2023-04-11T09:06:42.838Z,12.77
2023-04-11T09:09:31.576Z,12.55
2023-04-11T09:11:59.999Z,12.74
2023-04-11T09:14:28.377Z,12.87
2023-04-11T09:16:58.797Z,12.87
2023-04-11T09:19:27.690Z,12.91
2023-04-11T09:21:56.886Z,12.87
2023-04-11T09:24:26.506Z,12.62
2023-04-11T09:27:10.030Z,12.53
2023-04-11T09:29:42.245Z,12.35
2023-04-11T09:32:31.660Z,12.38
2023-04-11T09:35:11.208Z,12.00
2023-04-11T09:37:46.973Z,11.90
2023-04-11T09:40:19.260Z,12.29
2023-04-11T09:42:50.637Z,12.18
2023-04-11T09:45:20.663Z,12.37
2023-04-11T09:47:51.307Z,12.25
2023-04-11T09:50:20.253Z,11.96
2023-04-11T09:52:48.611Z,12.13
2023-04-11T09:55:19.569Z,12.26
2023-04-11T09:57:53.333Z,12.34
2023-04-11T10:00:24.329Z,12.25
2023-04-11T10:02:54.149Z,11.93
2023-04-11T10:05:27.750Z,12.28
2023-04-11T10:08:01.932Z,12.02
2023-04-11T10:10:31.115Z,11.95
2023-04-11T10:13:03.569Z,12.59
2023-04-11T10:15:31.731Z,13.00
2023-04-11T10:18:10.637Z,13.46
2023-04-11T10:20:44.018Z,13.46
2023-04-11T10:23:13.068Z,13.48
2023-04-11T10:25:52.292Z,12.98
2023-04-11T10:28:48.513Z,12.76
2023-04-11T10:31:19.909Z,12.73
2023-04-11T10:34:15.662Z,12.90
2023-04-11T10:37:05.090Z,13.09
2023-04-11T10:40:10.403Z,13.26
2023-04-11T10:42:40.835Z,13.33
2023-04-11T10:45:18.455Z,13.63
2023-04-11T10:48:05.977Z,13.86
2023-04-11T10:50:37.059Z,13.10
2023-04-11T10:53:07.683Z,13.29
2023-04-11T10:55:49.637Z,13.63
2023-04-11T10:58:19.863Z,13.96
2023-04-11T11:01:31.876Z,13.89
2023-04-11T11:04:07.059Z,14.14
2023-04-11T11:06:46.058Z,14.02
2023-04-11T11:09:23.461Z,14.10
2023-04-11T11:12:07.613Z,14.53
2023-04-11T11:14:35.796Z,14.91
2023-04-11T11:17:04.243Z,15.13
2023-04-11T11:19:36.321Z,15.40
2023-04-11T11:22:06.471Z,14.68
2023-04-11T11:24:34.368Z,14.37
2023-04-11T11:27:02.562Z,14.38
2023-04-11T11:29:36.105Z,14.24
2023-04-11T11:32:04.754Z,13.31
2023-04-11T11:34:36.222Z,13.72
2023-04-11T11:37:05.777Z,13.98
2023-04-11T11:39:34.289Z,13.90
2023-04-11T11:42:03.485Z,14.30
2023-04-11T11:44:32.755Z,14.65
2023-04-11T11:47:04.534Z,14.73
2023-04-11T11:49:47.168Z,14.81
2023-04-11T11:52:33.058Z,14.78
2023-04-11T11:55:03.781Z,14.75
2023-04-11T11:57:31.997Z,14.28
2023-04-11T12:00:05.478Z,14.27
2023-04-11T12:02:36.413Z,14.23
2023-04-11T12:05:07.376Z,14.50
2023-04-11T12:07:38.709Z,14.90
2023-04-11T12:10:09.609Z,14.87
2023-04-11T12:12:39.090Z,14.81
2023-04-11T12:15:12.470Z,14.91
2023-04-11T12:17:41.161Z,14.92
2023-04-11T12:20:12.102Z,14.58
2023-04-11T12:22:40.434Z,14.81
2023-04-11T12:25:09.972Z,14.55
2023-04-11T12:27:38.809Z,14.35
2023-04-11T12:30:08.149Z,14.68
2023-04-11T12:32:36.793Z,14.70
2023-04-11T12:35:08.000Z,14.49
2023-04-11T12:37:37.459Z,14.35
2023-04-11T12:40:11.093Z,14.10
2023-04-11T12:42:49.554Z,13.95
2023-04-11T12:45:24.732Z,13.50
2023-04-11T12:47:56.162Z,14.13
2023-04-11T12:50:24.904Z,14.18
2023-04-11T12:52:55.592Z,14.45
2023-04-11T12:55:24.559Z,14.84
2023-04-11T12:57:52.715Z,15.21
2023-04-11T13:00:21.328Z,15.38
2023-04-11T13:02:49.745Z,15.44
2023-04-11T13:05:18.273Z,15.45
2023-04-11T13:07:46.760Z,15.51
2023-04-11T13:10:16.923Z,15.50
2023-04-11T13:12:46.725Z,15.07
2023-04-11T13:15:15.665Z,15.16
2023-04-11T13:17:44.455Z,15.44
2023-04-11T13:20:13.945Z,15.76
2023-04-11T13:22:43.088Z,15.91
2023-04-11T13:25:12.612Z,15.84
2023-04-11T13:27:42.850Z,15.74
2023-04-11T13:30:12.071Z,15.17
2023-04-11T13:32:40.754Z,14.55
2023-04-11T13:35:10.372Z,15.03
2023-04-11T13:37:38.429Z,15.14
2023-04-11T13:40:08.822Z,15.19
2023-04-11T13:42:36.846Z,15.11
2023-04-11T13:45:07.437Z,14.49
2023-04-11T13:47:38.228Z,14.35
2023-04-11T13:50:09.603Z,14.71
2023-04-11T13:52:37.928Z,14.73
2023-04-11T13:55:07.225Z,14.79
2023-04-11T13:57:35.438Z,14.58
2023-04-11T14:00:11.328Z,14.94
2023-04-11T14:02:41.382Z,15.12
2023-04-11T14:05:10.797Z,15.03
2023-04-11T14:07:39.256Z,14.92
2023-04-11T14:10:08.185Z,14.71
2023-04-11T14:12:36.718Z,14.72
2023-04-11T14:15:06.101Z,14.37
2023-04-11T14:17:34.443Z,14.51
2023-04-11T14:20:06.920Z,14.66
2023-04-11T14:22:35.201Z,14.26
2023-04-11T14:25:03.064Z,14.36
2023-04-11T14:27:31.053Z,14.34
2023-04-11T14:29:59.223Z,14.39
2023-04-11T14:32:27.323Z,14.60
2023-04-11T14:34:56.144Z,14.73
2023-04-11T14:37:25.887Z,14.71
2023-04-11T14:39:53.852Z,14.44
2023-04-11T14:42:23.051Z,14.48
2023-04-11T14:44:51.896Z,14.33
2023-04-11T14:47:20.389Z,14.26
2023-04-11T14:49:48.313Z,14.32
2023-04-11T14:52:16.483Z,14.46
2023-04-11T14:54:45.798Z,14.46
2023-04-11T14:57:13.895Z,14.46
2023-04-11T14:59:43.291Z,14.45
2023-04-11T15:02:12.061Z,14.35
2023-04-11T15:04:40.207Z,14.39
2023-04-11T15:07:08.943Z,14.25
2023-04-11T15:09:36.822Z,13.94
2023-04-11T15:12:06.912Z,13.94
2023-04-11T15:14:35.177Z,14.01
2023-04-11T15:17:03.089Z,13.90
2023-04-11T15:19:31.533Z,13.77
2023-04-11T15:21:59.692Z,13.18
2023-04-11T15:24:27.873Z,13.29
2023-04-11T15:26:56.824Z,13.42
2023-04-11T15:29:26.844Z,13.52
2023-04-11T15:31:54.799Z,13.65
2023-04-11T15:34:23.449Z,13.60
2023-04-11T15:36:51.680Z,13.57
2023-04-11T15:39:19.572Z,13.73
2023-04-11T15:41:47.702Z,13.69
2023-04-11T15:44:16.059Z,13.70
2023-04-11T15:46:47.235Z,13.74
2023-04-11T15:49:17.076Z,13.92
2023-04-11T15:51:46.088Z,13.95
2023-04-11T15:54:13.978Z,13.84
2023-04-11T15:56:42.322Z,13.74
2023-04-11T15:59:12.942Z,13.61
2023-04-11T16:01:41.791Z,13.49
2023-04-11T16:04:12.226Z,13.49
2023-04-11T16:06:40.477Z,13.41
2023-04-11T16:09:08.757Z,13.42
2023-04-11T16:11:38.744Z,13.47
2023-04-11T16:14:06.832Z,13.30
2023-04-11T16:16:35.076Z,13.26
2023-04-11T16:19:03.318Z,12.87
2023-04-11T16:21:32.648Z,12.98
2023-04-11T16:24:00.660Z,13.17
2023-04-11T16:26:29.047Z,13.29
2023-04-11T16:28:57.227Z,13.15
2023-04-11T16:31:25.620Z,13.14
2023-04-11T16:33:55.411Z,12.93
2023-04-11T16:36:23.683Z,12.98
2023-04-11T16:38:52.976Z,12.97
2023-04-11T16:41:21.397Z,12.92
2023-04-11T16:43:49.612Z,13.01
2023-04-11T16:46:17.656Z,12.89
2023-04-11T16:48:46.079Z,12.79
2023-04-11T16:51:14.448Z,12.86
2023-04-11T16:53:42.483Z,12.86
2023-04-11T16:56:12.556Z,12.91
2023-04-11T16:58:40.978Z,12.79
2023-04-11T17:01:10.281Z,12.70
2023-04-11T17:03:39.693Z,12.70
2023-04-11T17:06:13.541Z,12.60
2023-04-11T17:08:43.112Z,12.06
2023-04-11T17:11:12.787Z,12.55
2023-04-11T17:13:42.377Z,12.23
2023-04-11T17:16:10.718Z,12.72
2023-04-11T17:18:39.225Z,12.77
2023-04-11T17:21:07.852Z,12.53
2023-04-11T17:23:43.173Z,12.66
2023-04-11T17:26:13.173Z,12.66
2023-04-11T17:28:42.583Z,12.58
2023-04-11T17:31:14.627Z,12.55
2023-04-11T17:33:44.087Z,12.59
2023-04-11T17:36:13.621Z,12.59
2023-04-11T17:38:43.526Z,12.43
2023-04-11T17:41:15.452Z,12.37
2023-04-11T17:43:43.902Z,12.39
2023-04-11T17:46:12.878Z,12.39
2023-04-11T17:48:40.985Z,12.36
2023-04-11T17:51:10.469Z,12.41
2023-04-11T17:53:38.476Z,12.46
2023-04-11T17:56:09.686Z,12.53
2023-04-11T17:58:42.615Z,12.53
2023-04-11T18:01:11.753Z,12.55
2023-04-11T18:03:41.490Z,12.32
2023-04-11T18:06:09.916Z,12.29
2023-04-11T18:08:50.534Z,12.35
2023-04-11T18:11:19.384Z,12.32
2023-04-11T18:13:50.527Z,12.32
2023-04-11T18:16:18.984Z,12.33
2023-04-11T18:18:48.402Z,12.35
2023-04-11T18:21:17.713Z,12.35
2023-04-11T18:23:45.972Z,11.98
2023-04-11T18:26:14.121Z,12.32
2023-04-11T18:28:42.281Z,12.29
2023-04-11T18:31:12.044Z,12.25
2023-04-11T18:33:43.414Z,12.19
2023-04-11T18:36:13.146Z,12.08
2023-04-11T18:38:41.498Z,12.17
2023-04-11T18:41:09.702Z,12.14
2023-04-11T18:43:38.682Z,11.97
2023-04-11T18:46:09.748Z,12.06
2023-04-11T18:48:39.375Z,12.06
2023-04-11T18:51:08.949Z,12.09
2023-04-11T18:53:37.012Z,12.08
2023-04-11T18:56:05.487Z,12.10
2023-04-11T18:58:35.172Z,12.04
2023-04-11T19:01:14.806Z,12.10
2023-04-11T19:03:46.371Z,12.13
2023-04-11T19:06:15.121Z,12.12
2023-04-11T19:08:43.081Z,12.01
2023-04-11T19:11:11.179Z,12.03
2023-04-11T19:13:39.657Z,12.03
2023-04-11T19:16:08.244Z,11.93
2023-04-11T19:18:36.495Z,11.98
2023-04-11T19:21:07.982Z,11.88
2023-04-11T19:23:37.849Z,11.23
2023-04-11T19:26:06.353Z,11.93
2023-04-11T19:28:34.610Z,11.88
2023-04-11T19:31:02.928Z,11.69
2023-04-11T19:33:31.578Z,11.58
2023-04-11T19:35:59.596Z,11.56
2023-04-11T19:38:29.260Z,11.44
2023-04-11T19:40:57.196Z,11.48
2023-04-11T19:43:25.169Z,11.41
2023-04-11T19:45:55.151Z,11.35
2023-04-11T19:48:23.307Z,11.23
2023-04-11T19:50:53.636Z,11.21
2023-04-11T19:53:22.088Z,11.25
2023-04-11T19:55:56.719Z,11.36
2023-04-11T19:58:24.797Z,11.36
2023-04-11T20:00:53.381Z,10.73
2023-04-11T20:03:21.962Z,11.27
2023-04-11T20:05:50.380Z,11.18
2023-04-11T20:08:19.243Z,11.14
2023-04-11T20:10:47.117Z,11.22
2023-04-11T20:13:17.328Z,11.17
2023-04-11T20:15:53.925Z,11.23
2023-04-11T20:18:21.913Z,11.20
2023-04-11T20:20:50.083Z,11.23
2023-04-11T20:23:18.324Z,11.18
2023-04-11T20:25:46.529Z,11.19
2023-04-11T20:28:15.036Z,11.13
2023-04-11T20:30:44.761Z,11.05
2023-04-11T20:33:13.174Z,11.11
2023-04-11T20:35:41.214Z,11.05
2023-04-11T20:38:09.582Z,11.01
2023-04-11T20:40:38.869Z,10.99
2023-04-11T20:43:06.829Z,11.01
2023-04-11T20:45:36.360Z,10.91
2023-04-11T20:48:09.138Z,10.85
2023-04-11T20:50:37.805Z,10.94
2023-04-11T20:53:05.991Z,10.89
2023-04-11T20:55:34.596Z,10.90
2023-04-11T20:58:04.009Z,10.87
2023-04-11T21:00:32.286Z,10.84
2023-04-11T21:03:00.516Z,10.72
2023-04-11T21:05:32.908Z,10.70
2023-04-11T21:08:02.355Z,10.82
2023-04-11T21:10:30.716Z,10.77
2023-04-11T21:12:58.855Z,10.86
2023-04-11T21:15:26.853Z,10.72
2023-04-11T21:17:54.872Z,10.84
2023-04-11T21:20:23.418Z,10.87
2023-04-11T21:22:54.672Z,10.90
2023-04-11T21:25:23.467Z,10.99
2023-04-11T21:27:51.577Z,11.01
2023-04-11T21:30:20.277Z,10.99
2023-04-11T21:32:49.212Z,10.94
2023-04-11T21:35:17.669Z,10.83
2023-04-11T21:37:48.489Z,10.93
2023-04-11T21:40:18.922Z,10.95
2023-04-11T21:42:47.004Z,10.90
2023-04-11T21:45:15.049Z,10.88
2023-04-11T21:47:43.154Z,10.86
2023-04-11T21:50:12.359Z,10.88
2023-04-11T21:52:40.975Z,10.90
2023-04-11T21:55:09.927Z,10.85
2023-04-11T21:57:39.888Z,10.86
2023-04-11T22:00:11.168Z,10.92
2023-04-11T22:02:39.853Z,10.87
2023-04-11T22:05:10.022Z,10.83
2023-04-11T22:07:47.615Z,10.79
2023-04-11T22:10:16.061Z,10.80
2023-04-11T22:12:47.539Z,10.64
2023-04-11T22:15:18.496Z,10.66
2023-04-11T22:17:51.266Z,10.62
2023-04-11T22:20:20.059Z,10.61
2023-04-11T22:22:48.360Z,10.53
2023-04-11T22:25:18.601Z,10.60
2023-04-11T22:27:47.982Z,10.56
2023-04-11T22:30:17.851Z,10.52
2023-04-11T22:32:47.254Z,10.43
2023-04-11T22:35:15.845Z,10.44
2023-04-11T22:37:44.982Z,10.53
2023-04-11T22:40:15.064Z,10.53
2023-04-11T22:42:43.315Z,10.51
2023-04-11T22:45:15.641Z,10.36
2023-04-11T22:47:46.230Z,10.44
2023-04-11T22:50:15.720Z,10.47
2023-04-11T22:52:43.930Z,10.46
2023-04-11T22:55:12.478Z,10.36
2023-04-11T22:57:41.032Z,10.35
2023-04-11T23:00:12.829Z,10.31
2023-04-11T23:02:42.533Z,10.34
2023-04-11T23:05:11.368Z,10.38
2023-04-11T23:07:39.440Z,10.20
2023-04-11T23:10:10.606Z,10.23
2023-04-11T23:12:40.494Z,10.28
2023-04-11T23:15:09.656Z,10.36
2023-04-11T23:17:40.202Z,10.30
2023-04-11T23:20:13.966Z,10.30
2023-04-11T23:22:43.938Z,10.23
2023-04-11T23:25:12.788Z,10.29
2023-04-11T23:27:41.257Z,10.21
2023-04-11T23:30:11.938Z,10.28
2023-04-11T23:32:41.673Z,10.40
2023-04-11T23:35:13.080Z,10.48
2023-04-11T23:37:41.464Z,10.45
2023-04-11T23:40:14.065Z,10.45
2023-04-11T23:42:42.869Z,10.45
2023-04-11T23:45:12.819Z,10.58
2023-04-11T23:47:40.869Z,10.67
2023-04-11T23:50:12.269Z,10.62
2023-04-11T23:52:40.618Z,10.60
2023-04-11T23:55:10.752Z,10.55
2023-04-11T23:57:38.956Z,10.56
